sensor_id;sensor_type;location;lat;lon;timestamp;P1;durP1;ratioP1;P2;durP2;ratioP2
61570;SDS011;47463;49.884;10.010;2023-04-15T00:00:00;4.2;;;3.4;;
61570;SDS011;47463;49.884;10.010;2023-04-15T00:05:00;4.2;;;3.4;;
61570;SDS011;47463;49.884;10.010;2023-04-15T00:10:00;6.7;;;3.6;;
61570;SDS011;47463;49.884;10.010;2023-04-15T00:15:00;7.3;;;3.9;;
61570;SDS011;47463;49.884;10.010;2023-04-15T00:20:00;6.2;;;3.8;;
61570;SDS011;47463;49.884;10.010;2023-04-15T00:25:00;5.7;;;3.8;;
61570;SDS011;47463;49.884;10.010;2023-04-15T00:30:00;5.8;;;3.6;;
61570;SDS011;47463;49.884;10.010;2023-04-15T00:35:00;5.8;;;3.6;;
61570;SDS011;47463;49.884;10.010;2023-04-15T00:40:00;5;;;3.5;;
61570;SDS011;47463;49.884;10.010;2023-04-15T00:45:00;7.4;;;3.7;;
61570;SDS011;47463;49.884;10.010;2023-04-15T00:50:00;7.2;;;4.5;;
61570;SDS011;47463;49.884;10.010;2023-04-15T00:55:00;12.1;;;4.6;;
61570;SDS011;47463;49.884;10.010;2023-04-15T01:00:00;10;;;4.6;;
61570;SDS011;47463;49.884;10.010;2023-04-15T01:05:00;10;;;4.6;;
61570;SDS011;47463;49.884;10.010;2023-04-15T01:10:00;6.1;;;4.2;;
61570;SDS011;47463;49.884;10.010;2023-04-15T01:15:00;7.4;;;5;;
61570;SDS011;47463;49.884;10.010;2023-04-15T01:20:00;8.9;;;4.7;;
61570;SDS011;47463;49.884;10.010;2023-04-15T01:25:00;7.8;;;4.5;;
61570;SDS011;47463;49.884;10.010;2023-04-15T01:30:00;6.9;;;4.2;;
61570;SDS011;47463;49.884;10.010;2023-04-15T01:35:00;6.9;;;4.2;;
61570;SDS011;47463;49.884;10.010;2023-04-15T01:40:00;6.5;;;4.4;;
61570;SDS011;47463;49.884;10.010;2023-04-15T01:45:00;7.4;;;4;;
61570;SDS011;47463;49.884;10.010;2023-04-15T01:50:00;7.1;;;4.7;;
61570;SDS011;47463;49.884;10.010;2023-04-15T01:55:00;6.9;;;4.4;;
61570;SDS011;47463;49.884;10.010;2023-04-15T02:00:00;6;;;4.4;;
61570;SDS011;47463;49.884;10.010;2023-04-15T02:05:00;6;;;4.4;;
61570;SDS011;47463;49.884;10.010;2023-04-15T02:10:00;6.8;;;4.3;;
61570;SDS011;47463;49.884;10.010;2023-04-15T02:15:00;7.1;;;4.2;;
61570;SDS011;47463;49.884;10.010;2023-04-15T02:20:00;7.1;;;4;;
61570;SDS011;47463;49.884;10.010;2023-04-15T02:25:00;5.9;;;3.7;;
61570;SDS011;47463;49.884;10.010;2023-04-15T02:30:00;5.8;;;3.8;;
61570;SDS011;47463;49.884;10.010;2023-04-15T02:35:01;5.8;;;3.8;;
61570;SDS011;47463;49.884;10.010;2023-04-15T02:40:00;6.6;;;4.3;;
61570;SDS011;47463;49.884;10.010;2023-04-15T02:45:00;6.2;;;4.2;;
61570;SDS011;47463;49.884;10.010;2023-04-15T02:50:00;7.4;;;3.9;;
61570;SDS011;47463;49.884;10.010;2023-04-15T02:55:00;8;;;4.8;;
61570;SDS011;47463;49.884;10.010;2023-04-15T03:00:00;6.5;;;4.6;;
61570;SDS011;47463;49.884;10.010;2023-04-15T03:05:00;6.5;;;4.6;;
61570;SDS011;47463;49.884;10.010;2023-04-15T03:10:00;5.1;;;4.1;;
61570;SDS011;47463;49.884;10.010;2023-04-15T03:15:00;9.9;;;4.5;;
61570;SDS011;47463;49.884;10.010;2023-04-15T03:20:00;6.3;;;3.8;;
61570;SDS011;47463;49.884;10.010;2023-04-15T03:25:00;8.7;;;4.6;;
61570;SDS011;47463;49.884;10.010;2023-04-15T03:30:00;9.2;;;4.8;;
61570;SDS011;47463;49.884;10.010;2023-04-15T03:35:00;9.2;;;4.8;;
61570;SDS011;47463;49.884;10.010;2023-04-15T03:40:00;8.4;;;4.8;;
61570;SDS011;47463;49.884;10.010;2023-04-15T03:45:00;8.1;;;5.3;;
61570;SDS011;47463;49.884;10.010;2023-04-15T03:50:00;11.9;;;6;;
61570;SDS011;47463;49.884;10.010;2023-04-15T03:55:00;9.1;;;5;;
61570;SDS011;47463;49.884;10.010;2023-04-15T04:00:00;10.9;;;5.4;;
61570;SDS011;47463;49.884;10.010;2023-04-15T04:05:00;10.9;;;5.4;;
61570;SDS011;47463;49.884;10.010;2023-04-15T04:10:00;8.1;;;5.4;;
61570;SDS011;47463;49.884;10.010;2023-04-15T04:15:00;8.2;;;5.5;;
61570;SDS011;47463;49.884;10.010;2023-04-15T04:20:00;8.5;;;5.5;;
61570;SDS011;47463;49.884;10.010;2023-04-15T04:25:00;9.4;;;5.5;;
61570;SDS011;47463;49.884;10.010;2023-04-15T04:30:00;8.8;;;5.2;;
61570;SDS011;47463;49.884;10.010;2023-04-15T04:35:00;8.8;;;5.2;;
61570;SDS011;47463;49.884;10.010;2023-04-15T04:40:00;9.2;;;5.3;;
61570;SDS011;47463;49.884;10.010;2023-04-15T04:45:00;9.8;;;5.5;;
61570;SDS011;47463;49.884;10.010;2023-04-15T04:50:00;11.4;;;6.1;;
61570;SDS011;47463;49.884;10.010;2023-04-15T04:55:00;8.8;;;5.7;;
61570;SDS011;47463;49.884;10.010;2023-04-15T05:00:00;9.1;;;5.3;;
61570;SDS011;47463;49.884;10.010;2023-04-15T05:05:00;9.1;;;5.3;;
61570;SDS011;47463;49.884;10.010;2023-04-15T05:10:00;8.3;;;5.7;;
61570;SDS011;47463;49.884;10.010;2023-04-15T05:15:00;9.5;;;5.2;;
61570;SDS011;47463;49.884;10.010;2023-04-15T05:20:00;10.8;;;5.2;;
61570;SDS011;47463;49.884;10.010;2023-04-15T05:25:00;8.7;;;5.2;;
61570;SDS011;47463;49.884;10.010;2023-04-15T05:30:00;8.4;;;5.5;;
61570;SDS011;47463;49.884;10.010;2023-04-15T05:35:00;8.4;;;5.5;;
61570;SDS011;47463;49.884;10.010;2023-04-15T05:40:00;10;;;5.7;;
61570;SDS011;47463;49.884;10.010;2023-04-15T05:45:00;8;;;5.4;;
61570;SDS011;47463;49.884;10.010;2023-04-15T05:50:00;9.5;;;6.1;;
61570;SDS011;47463;49.884;10.010;2023-04-15T05:55:00;10.5;;;5.9;;
61570;SDS011;47463;49.884;10.010;2023-04-15T06:00:00;7.2;;;5.6;;
61570;SDS011;47463;49.884;10.010;2023-04-15T06:05:00;7.2;;;5.6;;
61570;SDS011;47463;49.884;10.010;2023-04-15T06:10:00;9;;;5.6;;
61570;SDS011;47463;49.884;10.010;2023-04-15T06:15:00;11;;;5.6;;
61570;SDS011;47463;49.884;10.010;2023-04-15T06:20:00;7.5;;;5.5;;
61570;SDS011;47463;49.884;10.010;2023-04-15T06:25:00;13.8;;;6;;
61570;SDS011;47463;49.884;10.010;2023-04-15T06:30:00;8.9;;;5.8;;
61570;SDS011;47463;49.884;10.010;2023-04-15T06:35:00;8.9;;;5.8;;
61570;SDS011;47463;49.884;10.010;2023-04-15T06:40:00;9.6;;;5.9;;
61570;SDS011;47463;49.884;10.010;2023-04-15T06:45:00;11.1;;;7;;
61570;SDS011;47463;49.884;10.010;2023-04-15T06:50:00;12.2;;;7.3;;
61570;SDS011;47463;49.884;10.010;2023-04-15T06:55:00;12.7;;;7.1;;
61570;SDS011;47463;49.884;10.010;2023-04-15T07:00:00;13.7;;;7.9;;
61570;SDS011;47463;49.884;10.010;2023-04-15T07:05:00;13.7;;;7.9;;
61570;SDS011;47463;49.884;10.010;2023-04-15T07:10:00;12.6;;;8.1;;
61570;SDS011;47463;49.884;10.010;2023-04-15T07:15:00;11.9;;;7.2;;
61570;SDS011;47463;49.884;10.010;2023-04-15T07:20:00;13.3;;;7.8;;
61570;SDS011;47463;49.884;10.010;2023-04-15T07:25:00;10.1;;;6.8;;
61570;SDS011;47463;49.884;10.010;2023-04-15T07:30:00;12.9;;;7.8;;
61570;SDS011;47463;49.884;10.010;2023-04-15T07:35:00;12.9;;;7.8;;
61570;SDS011;47463;49.884;10.010;2023-04-15T07:40:00;11;;;7;;
61570;SDS011;47463;49.884;10.010;2023-04-15T07:45:00;10.4;;;6.8;;
61570;SDS011;47463;49.884;10.010;2023-04-15T07:50:00;12.9;;;6.8;;
61570;SDS011;47463;49.884;10.010;2023-04-15T07:55:00;10;;;6.7;;
61570;SDS011;47463;49.884;10.010;2023-04-15T08:00:00;10.5;;;6.4;;
61570;SDS011;47463;49.884;10.010;2023-04-15T08:05:00;10.5;;;6.4;;
61570;SDS011;47463;49.884;10.010;2023-04-15T08:10:00;9.7;;;5.8;;
61570;SDS011;47463;49.884;10.010;2023-04-15T08:15:00;8.3;;;5.9;;
61570;SDS011;47463;49.884;10.010;2023-04-15T08:20:00;10.4;;;6.2;;
61570;SDS011;47463;49.884;10.010;2023-04-15T08:25:00;10.2;;;6.7;;
61570;SDS011;47463;49.884;10.010;2023-04-15T08:30:00;10.4;;;6.5;;
61570;SDS011;47463;49.884;10.010;2023-04-15T08:35:00;10.4;;;6.5;;
61570;SDS011;47463;49.884;10.010;2023-04-15T08:40:00;11.1;;;6.1;;
61570;SDS011;47463;49.884;10.010;2023-04-15T08:45:00;9;;;6.6;;
61570;SDS011;47463;49.884;10.010;2023-04-15T08:50:00;9.1;;;6.1;;
61570;SDS011;47463;49.884;10.010;2023-04-15T08:55:00;10.7;;;6.8;;
61570;SDS011;47463;49.884;10.010;2023-04-15T09:00:00;9.5;;;6.3;;
61570;SDS011;47463;49.884;10.010;2023-04-15T09:05:00;9.5;;;6.3;;
61570;SDS011;47463;49.884;10.010;2023-04-15T09:10:00;8.9;;;6.1;;
61570;SDS011;47463;49.884;10.010;2023-04-15T09:15:00;6.4;;;4;;
61570;SDS011;47463;49.884;10.010;2023-04-15T09:20:07;6;;;4.2;;
61570;SDS011;47463;49.884;10.010;2023-04-15T09:25:00;8.5;;;4.3;;
61570;SDS011;47463;49.884;10.010;2023-04-15T09:30:00;8.3;;;4.2;;
61570;SDS011;47463;49.884;10.010;2023-04-15T09:35:05;8.3;;;4.2;;
61570;SDS011;47463;49.884;10.010;2023-04-15T09:40:00;6.1;;;3.7;;
61570;SDS011;47463;49.884;10.010;2023-04-15T09:45:06;6;;;4.2;;
61570;SDS011;47463;49.884;10.010;2023-04-15T09:50:00;129;;;10.3;;
61570;SDS011;47463;49.884;10.010;2023-04-15T09:55:00;50.9;;;5.5;;
61570;SDS011;47463;49.884;10.010;2023-04-15T10:00:00;76.8;;;7.6;;
61570;SDS011;47463;49.884;10.010;2023-04-15T10:05:00;76.8;;;7.6;;
61570;SDS011;47463;49.884;10.010;2023-04-15T10:10:00;39.4;;;5;;
61570;SDS011;47463;49.884;10.010;2023-04-15T10:15:02;135.4;;;10.3;;
61570;SDS011;47463;49.884;10.010;2023-04-15T10:20:00;5.8;;;1.9;;
61570;SDS011;47463;49.884;10.010;2023-04-15T10:25:00;7.3;;;2.8;;
61570;SDS011;47463;49.884;10.010;2023-04-15T10:30:00;16.4;;;3.3;;
61570;SDS011;47463;49.884;10.010;2023-04-15T10:35:00;16.4;;;3.3;;
61570;SDS011;47463;49.884;10.010;2023-04-15T10:40:00;10.1;;;3.4;;
61570;SDS011;47463;49.884;10.010;2023-04-15T10:45:00;49.6;;;6.6;;
61570;SDS011;47463;49.884;10.010;2023-04-15T10:50:00;8.4;;;3.8;;
61570;SDS011;47463;49.884;10.010;2023-04-15T10:55:01;52.2;;;7;;
61570;SDS011;47463;49.884;10.010;2023-04-15T11:00:03;49;;;6.9;;
61570;SDS011;47463;49.884;10.010;2023-04-15T11:05:00;49;;;6.9;;
61570;SDS011;47463;49.884;10.010;2023-04-15T11:10:00;8.9;;;4.4;;
61570;SDS011;47463;49.884;10.010;2023-04-15T11:15:00;42.6;;;6.6;;
61570;SDS011;47463;49.884;10.010;2023-04-15T11:20:00;9.6;;;5.4;;
61570;SDS011;47463;49.884;10.010;2023-04-15T11:25:00;11.9;;;5.9;;
61570;SDS011;47463;49.884;10.010;2023-04-15T11:30:00;7.7;;;5.5;;
61570;SDS011;47463;49.884;10.010;2023-04-15T11:35:00;7.7;;;5.5;;
61570;SDS011;47463;49.884;10.010;2023-04-15T11:40:01;7.3;;;5;;
61570;SDS011;47463;49.884;10.010;2023-04-15T11:45:05;6.9;;;5;;
61570;SDS011;47463;49.884;10.010;2023-04-15T11:50:12;6.6;;;4.7;;
61570;SDS011;47463;49.884;10.010;2023-04-15T11:55:01;8.6;;;5.4;;
61570;SDS011;47463;49.884;10.010;2023-04-15T12:00:00;20.2;;;16;;
61570;SDS011;47463;49.884;10.010;2023-04-15T12:05:03;20.2;;;16;;
61570;SDS011;47463;49.884;10.010;2023-04-15T12:10:00;6.6;;;4.7;;
61570;SDS011;47463;49.884;10.010;2023-04-15T12:15:00;8.1;;;4.5;;
61570;SDS011;47463;49.884;10.010;2023-04-15T12:20:00;5;;;3.8;;
61570;SDS011;47463;49.884;10.010;2023-04-15T12:25:00;3.9;;;3.3;;
61570;SDS011;47463;49.884;10.010;2023-04-15T12:30:02;5.4;;;3.8;;
61570;SDS011;47463;49.884;10.010;2023-04-15T12:35:00;5.4;;;3.8;;
61570;SDS011;47463;49.884;10.010;2023-04-15T12:40:00;4.5;;;3.3;;
61570;SDS011;47463;49.884;10.010;2023-04-15T12:45:00;7.6;;;5;;
61570;SDS011;47463;49.884;10.010;2023-04-15T12:50:00;6.7;;;5;;
61570;SDS011;47463;49.884;10.010;2023-04-15T12:55:00;8.3;;;5.5;;
61570;SDS011;47463;49.884;10.010;2023-04-15T13:00:00;9.6;;;6.1;;
61570;SDS011;47463;49.884;10.010;2023-04-15T13:05:00;9.6;;;6.1;;
61570;SDS011;47463;49.884;10.010;2023-04-15T13:10:00;6.9;;;4.9;;
61570;SDS011;47463;49.884;10.010;2023-04-15T13:15:00;8;;;5.1;;
61570;SDS011;47463;49.884;10.010;2023-04-15T13:20:00;6.9;;;4.2;;
61570;SDS011;47463;49.884;10.010;2023-04-15T13:25:00;8.4;;;5;;
61570;SDS011;47463;49.884;10.010;2023-04-15T13:30:00;6.1;;;3.6;;
61570;SDS011;47463;49.884;10.010;2023-04-15T13:35:00;6.1;;;3.6;;
61570;SDS011;47463;49.884;10.010;2023-04-15T13:40:00;6.9;;;3.6;;
61570;SDS011;47463;49.884;10.010;2023-04-15T13:45:00;4.3;;;3.3;;
61570;SDS011;47463;49.884;10.010;2023-04-15T13:50:00;4.4;;;3.3;;
61570;SDS011;47463;49.884;10.010;2023-04-15T13:55:00;5.2;;;3.7;;
61570;SDS011;47463;49.884;10.010;2023-04-15T14:00:00;4.9;;;4.1;;
61570;SDS011;47463;49.884;10.010;2023-04-15T14:05:00;4.9;;;4.1;;
61570;SDS011;47463;49.884;10.010;2023-04-15T14:10:00;6.1;;;3.5;;
61570;SDS011;47463;49.884;10.010;2023-04-15T14:15:00;3.9;;;2.5;;
61570;SDS011;47463;49.884;10.010;2023-04-15T14:20:00;3.7;;;2.7;;
61570;SDS011;47463;49.884;10.010;2023-04-15T14:25:00;3.5;;;2.3;;
61570;SDS011;47463;49.884;10.010;2023-04-15T14:30:00;2.8;;;2.3;;
61570;SDS011;47463;49.884;10.010;2023-04-15T14:35:00;2.8;;;2.3;;
61570;SDS011;47463;49.884;10.010;2023-04-15T14:40:00;3.6;;;2.4;;
61570;SDS011;47463;49.884;10.010;2023-04-15T14:45:00;3;;;2.4;;
61570;SDS011;47463;49.884;10.010;2023-04-15T14:50:00;3.5;;;2.1;;
61570;SDS011;47463;49.884;10.010;2023-04-15T14:55:00;3.5;;;2.3;;
61570;SDS011;47463;49.884;10.010;2023-04-15T15:00:00;3.1;;;2.2;;
61570;SDS011;47463;49.884;10.010;2023-04-15T15:05:00;3.1;;;2.2;;
61570;SDS011;47463;49.884;10.010;2023-04-15T15:10:00;2.6;;;2.4;;
61570;SDS011;47463;49.884;10.010;2023-04-15T15:15:00;4.3;;;2.7;;
61570;SDS011;47463;49.884;10.010;2023-04-15T15:20:00;3.4;;;2.3;;
61570;SDS011;47463;49.884;10.010;2023-04-15T15:25:00;3.3;;;2.2;;
61570;SDS011;47463;49.884;10.010;2023-04-15T15:30:00;4.7;;;2.8;;
61570;SDS011;47463;49.884;10.010;2023-04-15T15:35:00;4.7;;;2.8;;
61570;SDS011;47463;49.884;10.010;2023-04-15T15:40:00;8.2;;;4.1;;
61570;SDS011;47463;49.884;10.010;2023-04-15T15:45:00;7.4;;;3.5;;
61570;SDS011;47463;49.884;10.010;2023-04-15T15:50:00;5.6;;;2.6;;
61570;SDS011;47463;49.884;10.010;2023-04-15T15:55:00;10.3;;;3.7;;
61570;SDS011;47463;49.884;10.010;2023-04-15T16:00:00;13.9;;;5.6;;
61570;SDS011;47463;49.884;10.010;2023-04-15T16:05:00;13.9;;;5.6;;
61570;SDS011;47463;49.884;10.010;2023-04-15T16:10:00;8;;;3.6;;
61570;SDS011;47463;49.884;10.010;2023-04-15T16:15:00;5.7;;;3.4;;
61570;SDS011;47463;49.884;10.010;2023-04-15T16:20:00;5.1;;;2.8;;
61570;SDS011;47463;49.884;10.010;2023-04-15T16:25:00;13.5;;;5.6;;
61570;SDS011;47463;49.884;10.010;2023-04-15T16:30:00;9.5;;;4.3;;
61570;SDS011;47463;49.884;10.010;2023-04-15T16:35:00;9.5;;;4.3;;
61570;SDS011;47463;49.884;10.010;2023-04-15T16:40:00;8.9;;;4;;
61570;SDS011;47463;49.884;10.010;2023-04-15T16:45:00;4.9;;;2.5;;
61570;SDS011;47463;49.884;10.010;2023-04-15T16:50:00;8.2;;;3.4;;
61570;SDS011;47463;49.884;10.010;2023-04-15T16:55:00;7.9;;;4.5;;
61570;SDS011;47463;49.884;10.010;2023-04-15T17:00:00;5;;;2.4;;
61570;SDS011;47463;49.884;10.010;2023-04-15T17:05:00;5;;;2.4;;
61570;SDS011;47463;49.884;10.010;2023-04-15T17:10:00;3.2;;;1.5;;
61570;SDS011;47463;49.884;10.010;2023-04-15T17:15:00;2.1;;;1.4;;
61570;SDS011;47463;49.884;10.010;2023-04-15T17:20:00;6.8;;;3.5;;
61570;SDS011;47463;49.884;10.010;2023-04-15T17:25:00;4.9;;;2.7;;
61570;SDS011;47463;49.884;10.010;2023-04-15T17:30:00;1.7;;;1.3;;
61570;SDS011;47463;49.884;10.010;2023-04-15T17:35:00;1.7;;;1.3;;
61570;SDS011;47463;49.884;10.010;2023-04-15T17:40:00;1.5;;;1.2;;
61570;SDS011;47463;49.884;10.010;2023-04-15T17:45:00;2.9;;;1.2;;
61570;SDS011;47463;49.884;10.010;2023-04-15T17:50:00;1.4;;;1;;
61570;SDS011;47463;49.884;10.010;2023-04-15T17:55:00;1.9;;;1.1;;
61570;SDS011;47463;49.884;10.010;2023-04-15T18:00:00;1.3;;;0.9;;
61570;SDS011;47463;49.884;10.010;2023-04-15T18:05:00;1.3;;;0.9;;
61570;SDS011;47463;49.884;10.010;2023-04-15T18:10:00;1.7;;;1.2;;
61570;SDS011;47463;49.884;10.010;2023-04-15T18:15:00;1.4;;;1.2;;
61570;SDS011;47463;49.884;10.010;2023-04-15T18:20:00;2.3;;;1.3;;
61570;SDS011;47463;49.884;10.010;2023-04-15T18:25:00;1.4;;;1.1;;
61570;SDS011;47463;49.884;10.010;2023-04-15T18:30:00;2.2;;;1.2;;
61570;SDS011;47463;49.884;10.010;2023-04-15T18:35:00;2.2;;;1.2;;
61570;SDS011;47463;49.884;10.010;2023-04-15T18:40:00;2.1;;;1.3;;
61570;SDS011;47463;49.884;10.010;2023-04-15T18:45:00;2.4;;;1.2;;
61570;SDS011;47463;49.884;10.010;2023-04-15T18:50:00;2.2;;;1.8;;
61570;SDS011;47463;49.884;10.010;2023-04-15T18:55:00;2.7;;;1.9;;
61570;SDS011;47463;49.884;10.010;2023-04-15T19:00:00;5.3;;;2.6;;
61570;SDS011;47463;49.884;10.010;2023-04-15T19:05:00;5.3;;;2.6;;
61570;SDS011;47463;49.884;10.010;2023-04-15T19:10:00;6.2;;;3.3;;
61570;SDS011;47463;49.884;10.010;2023-04-15T19:15:00;11.5;;;5.4;;
61570;SDS011;47463;49.884;10.010;2023-04-15T19:20:00;5.7;;;3.3;;
61570;SDS011;47463;49.884;10.010;2023-04-15T19:25:00;5.2;;;2.6;;
61570;SDS011;47463;49.884;10.010;2023-04-15T19:30:00;4.4;;;2.9;;
61570;SDS011;47463;49.884;10.010;2023-04-15T19:35:00;4.4;;;2.9;;
61570;SDS011;47463;49.884;10.010;2023-04-15T19:40:00;4.5;;;3.1;;
61570;SDS011;47463;49.884;10.010;2023-04-15T19:45:00;4.8;;;3;;
61570;SDS011;47463;49.884;10.010;2023-04-15T19:50:00;4.6;;;3.2;;
61570;SDS011;47463;49.884;10.010;2023-04-15T19:55:00;6.5;;;3.7;;
61570;SDS011;47463;49.884;10.010;2023-04-15T20:00:00;6.8;;;4.3;;
61570;SDS011;47463;49.884;10.010;2023-04-15T20:05:00;6.8;;;4.3;;
61570;SDS011;47463;49.884;10.010;2023-04-15T20:10:00;7.1;;;4.1;;
61570;SDS011;47463;49.884;10.010;2023-04-15T20:15:00;6.9;;;4.1;;
61570;SDS011;47463;49.884;10.010;2023-04-15T20:20:00;6.7;;;4.1;;
61570;SDS011;47463;49.884;10.010;2023-04-15T20:25:00;6.7;;;4;;
61570;SDS011;47463;49.884;10.010;2023-04-15T20:30:00;8.6;;;4.9;;
61570;SDS011;47463;49.884;10.010;2023-04-15T20:35:00;8.6;;;4.9;;
61570;SDS011;47463;49.884;10.010;2023-04-15T20:40:00;7.1;;;4.3;;
61570;SDS011;47463;49.884;10.010;2023-04-15T20:45:00;8.3;;;5;;
61570;SDS011;47463;49.884;10.010;2023-04-15T20:50:00;7.7;;;5;;
61570;SDS011;47463;49.884;10.010;2023-04-15T20:55:00;10.1;;;6;;
61570;SDS011;47463;49.884;10.010;2023-04-15T21:00:00;10.3;;;5.9;;
61570;SDS011;47463;49.884;10.010;2023-04-15T21:05:00;10.3;;;5.9;;
61570;SDS011;47463;49.884;10.010;2023-04-15T21:10:00;9.2;;;5.6;;
61570;SDS011;47463;49.884;10.010;2023-04-15T21:15:00;9.3;;;5.5;;
61570;SDS011;47463;49.884;10.010;2023-04-15T21:20:00;9.8;;;6.1;;
61570;SDS011;47463;49.884;10.010;2023-04-15T21:25:00;10.9;;;6.3;;
61570;SDS011;47463;49.884;10.010;2023-04-15T21:30:00;14.6;;;7.7;;
61570;SDS011;47463;49.884;10.010;2023-04-15T21:35:00;14.6;;;7.7;;
61570;SDS011;47463;49.884;10.010;2023-04-15T21:40:00;14.1;;;8.1;;
61570;SDS011;47463;49.884;10.010;2023-04-15T21:45:00;15.5;;;7.5;;
61570;SDS011;47463;49.884;10.010;2023-04-15T21:50:00;12.9;;;7.3;;
61570;SDS011;47463;49.884;10.010;2023-04-15T21:55:00;15.5;;;8;;
61570;SDS011;47463;49.884;10.010;2023-04-15T22:00:00;18.8;;;10.3;;
61570;SDS011;47463;49.884;10.010;2023-04-15T22:05:00;18.8;;;10.3;;
61570;SDS011;47463;49.884;10.010;2023-04-15T22:10:00;17.3;;;8.7;;
61570;SDS011;47463;49.884;10.010;2023-04-15T22:15:00;15.8;;;8.8;;
61570;SDS011;47463;49.884;10.010;2023-04-15T22:20:00;15.8;;;8.6;;
61570;SDS011;47463;49.884;10.010;2023-04-15T22:25:00;11.9;;;7.4;;
61570;SDS011;47463;49.884;10.010;2023-04-15T22:30:00;10.9;;;6.7;;
61570;SDS011;47463;49.884;10.010;2023-04-15T22:35:00;10.9;;;6.7;;
61570;SDS011;47463;49.884;10.010;2023-04-15T22:40:00;10.9;;;6.9;;
61570;SDS011;47463;49.884;10.010;2023-04-15T22:45:00;18.1;;;7.2;;
61570;SDS011;47463;49.884;10.010;2023-04-15T22:50:00;14.9;;;7.3;;
61570;SDS011;47463;49.884;10.010;2023-04-15T22:55:00;13.4;;;7;;
61570;SDS011;47463;49.884;10.010;2023-04-15T23:00:00;13;;;7.4;;
61570;SDS011;47463;49.884;10.010;2023-04-15T23:05:00;13;;;7.4;;
61570;SDS011;47463;49.884;10.010;2023-04-15T23:10:00;12.1;;;6.6;;
61570;SDS011;47463;49.884;10.010;2023-04-15T23:15:00;13.3;;;7.2;;
61570;SDS011;47463;49.884;10.010;2023-04-15T23:20:00;11.8;;;7;;
61570;SDS011;47463;49.884;10.010;2023-04-15T23:25:00;14;;;7.1;;
61570;SDS011;47463;49.884;10.010;2023-04-15T23:30:00;14.3;;;8.3;;
61570;SDS011;47463;49.884;10.010;2023-04-15T23:35:00;14.3;;;8.3;;
61570;SDS011;47463;49.884;10.010;2023-04-15T23:40:00;13.9;;;7.5;;
61570;SDS011;47463;49.884;10.010;2023-04-15T23:45:00;13.1;;;7.6;;
61570;SDS011;47463;49.884;10.010;2023-04-15T23:50:00;13.7;;;7.5;;
61570;SDS011;47463;49.884;10.010;2023-04-15T23:55:00;12.3;;;6.6;;
